Terminal Aerodrome Forecast
Issued by NWS

Home | Current Version | Previous Version | Text Only | Print | Product List | Glossary On
Versions: 1 2 3 4 5 6 7 8 9 10 11 12 13 14 15 16 17 18 19 20 21 22 23
238
FTUS44 KBMX 200811 AAB
TAFTCL
TAF AMD
KTCL 200811Z 2008/2106 21007KT P6SM OVC010
     FM201100 21005KT P6SM OVC007
     FM201600 21007KT P6SM OVC015
     FM201900 21008KT P6SM SCT025 BKN035=

USA.gov is the U.S. government's official web portal to all federal, state and local government web resources and services.